ADDS METAR Data

Data at: 0501 UTC 20 Apr 2018

METAR for:K1P1 (Plymouth Muni, NH, US)
Text:K1P1 200455Z AUTO 28010G16KT 10SM UP SCT026 SCT030 OVC110 01/M01 A2982 RMK AO2 T00131013
Temperature: 1.3°C ( 34°F)
Dewpoint: -1.3°C ( 30°F) [RH = 83%]
Pressure (altimeter):29.82 inches Hg (1009.9 mb)
Winds:from the W (280 degrees) at 12 MPH (10 knots; 5.1 m/s) gusting to 18 MPH (16 knots; 8.2 m/s)
Visibility:10 or more sm (16+ km)
Ceiling:11000 feet AGL
Clouds: scattered clouds at 2600 feet AGL, scattered clouds at 3000 feet AGL, overcast cloud deck at 11000 feet AGL
Weather:UP (unknown precipitation)
QC Flag:automated observation with no human augmentation